Valinhos, Brazil
Current Conditions -  °F | °C
As of 12:00 PM on Sunday 21 Dec 2014 (Local Time) from SBKP Reporting Station
Broken Clouds Broken Clouds  
Wind Chill: 81°   Ceiling: 3000
Heat Index: 83°   Visibility: 6mi
Dew Point: 66°   Wind: 15mph
Humidity: 61%   Direction: 360°N
Pressure: 29.97"   Gusts: NA
Location:  22.97°S, 47°W
Report Text: SBKP 211400Z 36013KT 9999 BKN030 FEW033TCU 27/19 Q1015
Loading
Personal Weather Stations






























Interactive Weather Map New forecast layout! Learn more

10-Day Weather Forecast

Advertisements
Track Severe Weather on mobile